createdAt,value
2018-04-01T00:00:33.292Z,90.88
2018-04-01T00:01:33.404Z,90.91
2018-04-01T00:02:33.411Z,90.92
2018-04-01T00:03:33.446Z,90.86
2018-04-01T00:04:33.435Z,90.90
2018-04-01T00:05:35.253Z,90.93
2018-04-01T00:06:33.437Z,90.97
2018-04-01T00:07:33.346Z,90.88
2018-04-01T00:08:33.458Z,90.82
2018-04-01T00:09:33.466Z,90.73
2018-04-01T00:10:33.479Z,90.72
2018-04-01T00:11:33.506Z,90.78
2018-04-01T00:12:33.482Z,90.79
2018-04-01T00:13:33.490Z,90.83
2018-04-01T00:14:33.402Z,90.84
2018-04-01T00:15:34.670Z,90.85
2018-04-01T00:16:33.309Z,90.82
2018-04-01T00:17:33.335Z,90.86
2018-04-01T00:18:33.333Z,90.87
2018-04-01T00:19:33.321Z,90.83
2018-04-01T00:20:33.344Z,90.85
2018-04-01T00:21:33.350Z,90.81
2018-04-01T00:22:33.350Z,90.78
2018-04-01T00:23:33.364Z,90.79
2018-04-01T00:24:35.244Z,90.76
2018-04-01T00:25:33.176Z,90.77
2018-04-01T00:26:33.299Z,90.74
2018-04-01T00:27:33.293Z,90.62
2018-04-01T00:28:33.403Z,90.52
2018-04-01T00:29:33.412Z,90.50
2018-04-01T00:30:33.420Z,90.46
2018-04-01T00:31:33.414Z,90.52
2018-04-01T00:32:33.422Z,90.47
2018-04-01T00:33:33.442Z,90.52
2018-04-01T00:34:33.437Z,90.49
2018-04-01T00:35:33.451Z,90.47
2018-04-01T00:36:33.479Z,90.45
2018-04-01T00:37:33.361Z,90.42
2018-04-01T00:38:33.362Z,90.39
2018-04-01T00:39:33.489Z,90.29
2018-04-01T00:40:33.490Z,90.23
2018-04-01T00:41:33.490Z,90.21
2018-04-01T00:42:33.517Z,90.19
2018-04-01T00:43:33.401Z,90.20
2018-04-01T00:44:33.510Z,90.10
2018-04-01T00:45:33.522Z,90.10
2018-04-01T00:46:35.770Z,90.16
2018-04-01T00:47:33.334Z,90.01
2018-04-01T00:48:33.338Z,89.92
2018-04-01T00:49:34.373Z,89.91
2018-04-01T00:50:33.357Z,90.00
2018-04-01T00:51:33.357Z,90.11
2018-04-01T00:52:33.581Z,90.17
2018-04-01T00:53:33.380Z,90.32
2018-04-01T00:54:33.402Z,90.40
2018-04-01T00:55:33.391Z,90.42
2018-04-01T00:56:33.402Z,90.36
2018-04-01T00:57:33.393Z,90.31
2018-04-01T00:58:33.404Z,90.25
2018-04-01T00:59:33.417Z,90.24
2018-04-01T01:00:33.419Z,90.21
2018-04-01T01:01:33.322Z,90.27
2018-04-01T01:02:33.445Z,90.44
2018-04-01T01:03:33.446Z,90.60
2018-04-01T01:04:33.454Z,90.72
2018-04-01T01:05:33.694Z,90.78
2018-04-01T01:06:33.368Z,90.82
2018-04-01T01:07:33.364Z,90.74
2018-04-01T01:08:33.374Z,90.71
2018-04-01T01:09:33.727Z,90.64
2018-04-01T01:10:33.185Z,90.57
2018-04-01T01:11:33.204Z,90.51
2018-04-01T01:12:33.196Z,90.57
2018-04-01T01:13:33.347Z,90.66
2018-04-01T01:14:33.418Z,90.76
2018-04-01T01:15:34.796Z,90.60
2018-04-01T01:16:33.328Z,90.46
2018-04-01T01:17:33.282Z,90.42
2018-04-01T01:18:33.481Z,90.47
2018-04-01T01:19:33.477Z,90.39
2018-04-01T01:20:33.357Z,90.52
2018-04-01T01:21:33.375Z,90.53
2018-04-01T01:22:33.386Z,90.44
2018-04-01T01:23:33.387Z,90.39
2018-04-01T01:24:33.390Z,90.43
2018-04-01T01:25:33.402Z,90.54
2018-04-01T01:26:33.405Z,90.40
2018-04-01T01:27:33.413Z,90.41
2018-04-01T01:28:33.434Z,90.56
2018-04-01T01:29:33.436Z,90.56
2018-04-01T01:30:33.433Z,90.39
2018-04-01T01:31:33.440Z,90.24
2018-04-01T01:32:33.358Z,90.18
2018-04-01T01:33:33.461Z,90.17
2018-04-01T01:34:33.466Z,90.29
2018-04-01T01:35:33.477Z,90.42
2018-04-01T01:36:33.477Z,90.51
2018-04-01T01:37:33.494Z,90.57
2018-04-01T01:38:33.493Z,90.53
2018-04-01T01:39:33.502Z,90.49
2018-04-01T01:40:33.747Z,90.39
2018-04-01T01:41:33.514Z,90.34
2018-04-01T01:42:33.118Z,90.30
2018-04-01T01:43:33.533Z,90.12
2018-04-01T01:44:33.541Z,90.06
2018-04-01T01:45:33.552Z,89.96
2018-04-01T01:46:33.558Z,89.99
2018-04-01T01:47:34.819Z,90.00
2018-04-01T01:48:33.561Z,90.02
2018-04-01T01:49:33.578Z,90.05
2018-04-01T01:50:36.898Z,90.02
2018-04-01T01:51:33.614Z,90.03
2018-04-01T01:52:33.602Z,90.11
2018-04-01T01:53:35.877Z,90.30
2018-04-01T01:54:33.423Z,90.31
2018-04-01T01:55:33.408Z,90.34
2018-04-01T01:56:33.422Z,90.26
2018-04-01T01:57:33.422Z,90.17
2018-04-01T01:58:33.441Z,90.14
2018-04-01T01:59:33.337Z,90.07
2018-04-01T02:00:33.477Z,90.03
2018-04-01T02:01:36.766Z,89.95
2018-04-01T02:02:33.510Z,90.01
2018-04-01T02:03:35.553Z,90.08
2018-04-01T02:04:33.482Z,90.15
2018-04-01T02:05:33.485Z,90.15
2018-04-01T02:06:33.496Z,90.20
2018-04-01T02:07:33.502Z,90.07
2018-04-01T02:08:33.505Z,90.02
2018-04-01T02:09:33.512Z,90.16
2018-04-01T02:10:33.521Z,90.36
2018-04-01T02:11:33.326Z,90.40
2018-04-01T02:12:33.332Z,90.29
2018-04-01T02:13:33.535Z,90.24
2018-04-01T02:14:36.649Z,90.20
2018-04-01T02:15:34.690Z,90.17
2018-04-01T02:16:33.565Z,90.21
2018-04-01T02:17:33.772Z,90.22
2018-04-01T02:18:33.573Z,90.26
2018-04-01T02:19:33.584Z,90.38
2018-04-01T02:20:37.916Z,90.45
2018-04-01T02:21:33.609Z,90.40
2018-04-01T02:22:33.607Z,90.41
2018-04-01T02:23:33.612Z,90.45
2018-04-01T02:24:33.651Z,90.48
2018-04-01T02:25:33.442Z,90.52
2018-04-01T02:26:33.441Z,90.43
2018-04-01T02:27:33.346Z,90.48
2018-04-01T02:28:33.475Z,90.47
2018-04-01T02:29:33.473Z,90.42
2018-04-01T02:30:39.138Z,90.31
2018-04-01T02:31:45.150Z,90.30
2018-04-01T02:32:52.450Z,90.32
2018-04-01T02:33:46.354Z,90.26
2018-04-01T02:34:46.958Z,90.22
2018-04-01T02:35:48.872Z,90.19
2018-04-01T02:36:33.401Z,90.23
2018-04-01T02:37:33.411Z,90.25
2018-04-01T02:38:33.545Z,90.18
2018-04-01T02:39:38.747Z,90.14
2018-04-01T02:40:35.537Z,90.12
2018-04-01T02:41:33.340Z,90.12
2018-04-01T02:42:33.349Z,90.21
2018-04-01T02:43:33.787Z,90.19
2018-04-01T02:44:33.359Z,90.06
2018-04-01T02:45:33.366Z,90.13
2018-04-01T02:46:33.379Z,90.12
2018-04-01T02:47:33.824Z,90.16
2018-04-01T02:48:33.389Z,90.19
2018-04-01T02:49:33.410Z,90.25
2018-04-01T02:50:33.409Z,90.37
2018-04-01T02:51:36.510Z,90.30
2018-04-01T02:52:33.423Z,90.30
2018-04-01T02:53:33.425Z,90.25
2018-04-01T02:54:33.438Z,90.21
2018-04-01T02:55:33.653Z,90.25
2018-04-01T02:56:34.438Z,90.29
2018-04-01T02:57:33.347Z,90.28
2018-04-01T02:58:33.361Z,90.07
2018-04-01T02:59:33.371Z,90.02
2018-04-01T03:00:33.380Z,90.14
2018-04-01T03:01:33.395Z,90.20
2018-04-01T03:02:33.426Z,90.21
2018-04-01T03:03:33.434Z,90.19
2018-04-01T03:04:33.486Z,90.19
2018-04-01T03:05:33.452Z,90.13
2018-04-01T03:06:33.415Z,90.21
2018-04-01T03:07:33.429Z,90.31
2018-04-01T03:08:33.666Z,90.33
2018-04-01T03:09:33.465Z,90.35
2018-04-01T03:10:33.446Z,90.21
2018-04-01T03:11:33.352Z,90.03
2018-04-01T03:12:33.681Z,89.92
2018-04-01T03:13:33.370Z,89.95
2018-04-01T03:14:33.374Z,90.20
2018-04-01T03:15:37.479Z,90.33
2018-04-01T03:16:33.391Z,90.37
2018-04-01T03:17:33.504Z,90.43
2018-04-01T03:18:33.509Z,90.39
2018-04-01T03:19:33.510Z,90.38
2018-04-01T03:20:33.526Z,90.39
2018-04-01T03:21:33.537Z,90.38
2018-04-01T03:22:33.530Z,90.38
2018-04-01T03:23:33.548Z,90.37
2018-04-01T03:24:33.540Z,90.34
2018-04-01T03:25:33.568Z,90.37
2018-04-01T03:26:33.571Z,90.35
2018-04-01T03:27:33.477Z,90.35
2018-04-01T03:28:33.802Z,90.38
2018-04-01T03:29:33.635Z,90.42
2018-04-01T03:30:33.389Z,90.46
2018-04-01T03:31:33.407Z,90.48
2018-04-01T03:32:33.397Z,90.45
2018-04-01T03:33:33.309Z,90.57
2018-04-01T03:34:33.641Z,90.46
2018-04-01T03:35:33.426Z,90.42
2018-04-01T03:36:33.430Z,90.43
2018-04-01T03:37:33.440Z,90.41
2018-04-01T03:38:33.438Z,90.34
2018-04-01T03:39:33.450Z,90.33
2018-04-01T03:40:33.476Z,90.30
2018-04-01T03:41:33.469Z,90.26
2018-04-01T03:42:33.480Z,90.28
2018-04-01T03:43:33.397Z,90.17
2018-04-01T03:44:33.395Z,90.09
2018-04-01T03:45:33.389Z,89.98
2018-04-01T03:46:33.511Z,89.97
2018-04-01T03:47:33.501Z,90.09
2018-04-01T03:48:33.518Z,90.13
2018-04-01T03:49:33.531Z,90.14
2018-04-01T03:50:33.530Z,90.19
2018-04-01T03:51:33.543Z,90.26
2018-04-01T03:52:33.579Z,90.16
2018-04-01T03:53:33.477Z,90.10
2018-04-01T03:54:33.557Z,90.16
2018-04-01T03:55:33.574Z,90.15
2018-04-01T03:56:33.574Z,90.22
2018-04-01T03:57:33.582Z,90.14
2018-04-01T03:58:33.626Z,90.13
2018-04-01T03:59:33.589Z,90.07
2018-04-01T04:00:33.501Z,90.03
2018-04-01T04:01:33.401Z,90.02
2018-04-01T04:02:33.413Z,90.07
2018-04-01T04:03:33.430Z,90.01
2018-04-01T04:04:33.426Z,89.96
2018-04-01T04:05:33.644Z,90.02
2018-04-01T04:06:33.446Z,89.89
2018-04-01T04:07:33.451Z,89.75
2018-04-01T04:08:33.454Z,89.73
2018-04-01T04:09:33.465Z,89.59
2018-04-01T04:10:34.493Z,89.64
2018-04-01T04:11:33.474Z,89.64
2018-04-01T04:12:33.486Z,89.70
2018-04-01T04:13:33.491Z,89.80
2018-04-01T04:14:33.497Z,89.75
2018-04-01T04:15:34.842Z,89.72
2018-04-01T04:16:33.514Z,89.58
2018-04-01T04:17:33.530Z,89.49
2018-04-01T04:18:33.866Z,89.46
2018-04-01T04:19:33.529Z,89.52
2018-04-01T04:20:33.546Z,89.56
2018-04-01T04:21:33.554Z,89.56
2018-04-01T04:22:33.559Z,89.54
2018-04-01T04:23:33.564Z,89.59
2018-04-01T04:24:33.576Z,89.55
2018-04-01T04:25:33.572Z,89.55
2018-04-01T04:26:33.486Z,89.56
2018-04-01T04:27:33.594Z,89.59
2018-04-01T04:28:33.602Z,89.63
2018-04-01T04:29:33.843Z,89.65
2018-04-01T04:30:33.407Z,89.66
2018-04-01T04:31:33.416Z,89.65
2018-04-01T04:32:33.421Z,89.69
2018-04-01T04:33:33.638Z,89.73
2018-04-01T04:34:33.443Z,89.77
2018-04-01T04:35:33.452Z,89.80
2018-04-01T04:36:33.463Z,89.82
2018-04-01T04:37:33.461Z,89.78
2018-04-01T04:38:33.469Z,89.79
2018-04-01T04:39:33.477Z,89.79
2018-04-01T04:40:33.506Z,89.87
2018-04-01T04:41:33.497Z,90.00
2018-04-01T04:42:33.493Z,90.08
2018-04-01T04:43:33.506Z,90.12
2018-04-01T04:44:33.524Z,90.20
2018-04-01T04:45:33.525Z,90.25
2018-04-01T04:46:33.526Z,90.37
2018-04-01T04:47:33.541Z,90.29
2018-04-01T04:48:33.543Z,90.19
2018-04-01T04:49:33.549Z,90.12
2018-04-01T04:50:33.558Z,90.12
2018-04-01T04:51:33.557Z,90.15
2018-04-01T04:52:33.570Z,90.28
2018-04-01T04:53:33.997Z,90.41
2018-04-01T04:54:33.583Z,90.42
2018-04-01T04:55:36.430Z,90.32
2018-04-01T04:56:33.498Z,90.26
2018-04-01T04:57:33.506Z,90.20
2018-04-01T04:58:33.418Z,90.16
2018-04-01T04:59:33.850Z,90.15
2018-04-01T05:00:33.421Z,90.16
2018-04-01T05:01:33.433Z,90.06
2018-04-01T05:02:33.443Z,90.13
2018-04-01T05:03:33.887Z,90.14
2018-04-01T05:04:33.458Z,90.13
2018-04-01T05:05:33.462Z,90.20
2018-04-01T05:06:33.470Z,90.13
2018-04-01T05:07:33.670Z,90.23
2018-04-01T05:08:33.481Z,90.29
2018-04-01T05:09:33.488Z,90.33
2018-04-01T05:10:33.497Z,90.41
2018-04-01T05:11:33.510Z,90.32
2018-04-01T05:12:33.522Z,90.31
2018-04-01T05:13:33.537Z,90.37
2018-04-01T05:14:33.530Z,90.37
2018-04-01T05:15:34.670Z,90.27
2018-04-01T05:16:33.544Z,90.29
2018-04-01T05:17:33.551Z,90.26
2018-04-01T05:18:33.559Z,90.28
2018-04-01T05:19:33.575Z,90.27
2018-04-01T05:20:33.595Z,90.25
2018-04-01T05:21:33.574Z,90.27
2018-04-01T05:22:33.818Z,90.27
2018-04-01T05:23:33.386Z,90.30
2018-04-01T05:24:33.822Z,90.27
2018-04-01T05:25:33.506Z,90.25
2018-04-01T05:26:33.531Z,90.14
2018-04-01T05:27:33.426Z,90.10
2018-04-01T05:28:34.654Z,90.09
2018-04-01T05:29:33.871Z,90.12
2018-04-01T05:30:33.455Z,90.09
2018-04-01T05:31:33.484Z,90.09
2018-04-01T05:32:33.455Z,89.98
2018-04-01T05:33:33.667Z,89.73
2018-04-01T05:34:33.682Z,89.56
2018-04-01T05:35:33.678Z,89.53
2018-04-01T05:36:33.690Z,89.60
2018-04-01T05:37:33.697Z,89.61
2018-04-01T05:38:33.694Z,89.50
2018-04-01T05:39:34.962Z,89.38
2018-04-01T05:40:33.413Z,89.06
2018-04-01T05:41:36.356Z,88.97
2018-04-01T05:42:33.422Z,88.72
2018-04-01T05:43:33.329Z,88.64
2018-04-01T05:44:37.284Z,88.59
2018-04-01T05:45:33.773Z,88.51
2018-04-01T05:46:35.641Z,88.34
2018-04-01T05:47:33.565Z,88.23
2018-04-01T05:48:33.465Z,88.28
2018-04-01T05:49:33.482Z,88.47
2018-04-01T05:50:33.580Z,88.66
2018-04-01T05:51:33.526Z,88.73
2018-04-01T05:52:33.517Z,88.69
2018-04-01T05:53:33.543Z,88.59
2018-04-01T05:54:33.650Z,88.37
2018-04-01T05:55:39.497Z,88.28
2018-04-01T05:56:33.562Z,88.25
2018-04-01T05:57:33.426Z,88.11
2018-04-01T05:58:33.641Z,88.07
2018-04-01T05:59:33.488Z,88.01
2018-04-01T06:00:36.141Z,87.97
2018-04-01T06:01:33.466Z,88.05
2018-04-01T06:02:36.546Z,88.12
2018-04-01T06:03:33.870Z,88.00
2018-04-01T06:04:33.482Z,87.82
2018-04-01T06:05:33.488Z,87.46
2018-04-01T06:06:33.495Z,87.41
2018-04-01T06:07:33.700Z,87.28
2018-04-01T06:08:33.629Z,87.31
2018-04-01T06:09:33.724Z,87.18
2018-04-01T06:10:33.745Z,87.16
2018-04-01T06:11:33.535Z,87.15
2018-04-01T06:12:33.573Z,86.84
2018-04-01T06:13:33.591Z,86.30
2018-04-01T06:14:33.590Z,86.46
2018-04-01T06:15:35.230Z,85.88
2018-04-01T06:16:33.505Z,85.55
2018-04-01T06:17:33.405Z,85.50
2018-04-01T06:18:33.513Z,85.02
2018-04-01T06:19:33.520Z,84.48
2018-04-01T06:20:33.539Z,84.45
2018-04-01T06:21:33.441Z,84.50
2018-04-01T06:22:33.546Z,83.74
2018-04-01T06:23:33.450Z,83.62
2018-04-01T06:24:33.661Z,83.27
2018-04-01T06:25:33.674Z,83.06
2018-04-01T06:26:33.677Z,83.14
2018-04-01T06:27:33.680Z,83.06
2018-04-01T06:28:36.662Z,83.01
2018-04-01T06:29:33.702Z,82.87
2018-04-01T06:30:33.707Z,82.32
2018-04-01T06:31:33.485Z,82.43
2018-04-01T06:32:34.026Z,81.69
2018-04-01T06:33:33.931Z,81.75
2018-04-01T06:34:33.938Z,81.50
2018-04-01T06:35:33.942Z,81.64
2018-04-01T06:36:33.750Z,81.62
2018-04-01T06:37:36.861Z,81.19
2018-04-01T06:38:33.768Z,81.31
2018-04-01T06:39:33.772Z,81.23
2018-04-01T06:40:33.785Z,80.75
2018-04-01T06:41:33.825Z,80.45
2018-04-01T06:42:33.789Z,80.05
2018-04-01T06:43:38.462Z,80.04
2018-04-01T06:44:33.498Z,79.61
2018-04-01T06:45:33.813Z,79.84
2018-04-01T06:46:33.921Z,79.75
2018-04-01T06:47:33.621Z,79.27
2018-04-01T06:48:33.637Z,78.89
2018-04-01T06:49:33.638Z,79.16
2018-04-01T06:50:33.651Z,78.93
2018-04-01T06:51:33.546Z,79.41
2018-04-01T06:52:33.566Z,79.61
2018-04-01T06:53:33.670Z,78.64
2018-04-01T06:54:33.682Z,78.27
2018-04-01T06:55:33.686Z,78.02
2018-04-01T06:56:33.692Z,77.03
2018-04-01T06:57:33.707Z,75.17
2018-04-01T06:58:44.868Z,75.40
2018-04-01T06:59:33.514Z,75.19
2018-04-01T07:00:36.186Z,75.30
2018-04-01T07:01:33.476Z,75.43
2018-04-01T07:02:33.546Z,77.03
2018-04-01T07:03:33.400Z,76.29
2018-04-01T07:04:33.194Z,76.37
2018-04-01T07:05:33.512Z,78.23
2018-04-01T07:06:36.294Z,77.38
2018-04-01T07:07:33.521Z,78.50
2018-04-01T07:08:40.799Z,78.82
2018-04-01T07:09:33.580Z,78.22
2018-04-01T07:10:33.588Z,77.55
2018-04-01T07:11:33.602Z,78.19
2018-04-01T07:12:33.603Z,78.37
2018-04-01T07:13:39.346Z,76.79
2018-04-01T07:14:35.998Z,76.82
2018-04-01T07:15:36.973Z,76.50
2018-04-01T07:16:33.533Z,76.92
2018-04-01T07:17:33.558Z,77.30
2018-04-01T07:18:33.548Z,77.79
2018-04-01T07:19:34.581Z,77.20
2018-04-01T07:20:33.563Z,77.27
2018-04-01T07:21:33.571Z,77.27
2018-04-01T07:22:33.583Z,74.65
2018-04-01T07:23:33.547Z,73.97
2018-04-01T07:24:33.545Z,74.09
2018-04-01T07:25:33.593Z,74.11
2018-04-01T07:26:33.556Z,74.01
2018-04-01T07:27:33.571Z,74.40
2018-04-01T07:28:33.586Z,74.37
2018-04-01T07:29:39.471Z,74.52
2018-04-01T07:30:33.525Z,75.06
2018-04-01T07:31:33.430Z,74.22
2018-04-01T07:32:33.545Z,73.82
2018-04-01T07:33:33.545Z,72.83
2018-04-01T07:34:33.419Z,72.24
2018-04-01T07:35:33.562Z,72.04
2018-04-01T07:38:09.936Z,71.64
2018-04-01T07:38:33.586Z,72.07
2018-04-01T07:39:36.566Z,71.05
2018-04-01T07:40:33.452Z,69.86
2018-04-01T07:41:33.483Z,67.66
2018-04-01T07:42:39.214Z,66.85
2018-04-01T07:43:36.202Z,67.10
2018-04-01T07:44:36.037Z,64.91
2018-04-01T07:45:33.390Z,64.45
2018-04-01T07:46:36.279Z,64.27
2018-04-01T07:47:33.118Z,63.18
2018-04-01T07:48:33.123Z,62.66
2018-04-01T07:49:33.518Z,63.44
2018-04-01T07:50:33.529Z,61.23
2018-04-01T07:51:33.542Z,63.82
2018-04-01T07:52:39.499Z,64.48
2018-04-01T07:53:33.550Z,65.41
2018-04-01T07:54:33.567Z,64.99
2018-04-01T07:55:33.368Z,66.08
2018-04-01T07:56:33.577Z,65.17
2018-04-01T07:57:33.597Z,64.37
2018-04-01T07:58:33.585Z,63.89
2018-04-01T07:59:36.548Z,64.26
2018-04-01T08:00:33.500Z,63.67
2018-04-01T08:01:33.411Z,61.44
2018-04-01T08:02:34.443Z,59.86
2018-04-01T08:03:34.271Z,58.58
2018-04-01T08:04:34.242Z,59.49
2018-04-01T08:05:37.309Z,60.24
2018-04-01T08:06:38.192Z,61.79
2018-04-01T08:07:37.422Z,57.31
2018-04-01T08:08:35.828Z,60.73
2018-04-01T08:09:38.178Z,60.48
2018-04-01T08:10:35.479Z,59.99
2018-04-01T08:11:35.161Z,57.63
2018-04-01T08:12:37.497Z,58.00
2018-04-01T08:13:35.062Z,58.04
2018-04-01T08:14:35.219Z,56.30
2018-04-01T08:15:36.376Z,56.39
2018-04-01T08:16:35.214Z,57.25
2018-04-01T08:17:35.019Z,57.68
2018-04-01T08:18:34.640Z,60.70
2018-04-01T08:19:35.163Z,60.51
2018-04-01T08:20:35.018Z,60.32
2018-04-01T08:21:37.579Z,59.17
2018-04-01T08:22:34.805Z,58.29
2018-04-01T08:23:35.090Z,58.33
2018-04-01T08:24:34.833Z,62.02
2018-04-01T08:25:35.235Z,61.90
2018-04-01T08:26:34.822Z,59.40
2018-04-01T08:27:34.797Z,59.81
2018-04-01T08:28:34.802Z,59.63
2018-04-01T08:29:34.731Z,58.41
2018-04-01T08:30:34.952Z,59.21
2018-04-01T08:31:38.147Z,55.49
2018-04-01T08:32:34.821Z,55.92
2018-04-01T08:33:35.038Z,55.46
2018-04-01T08:34:34.807Z,57.21
2018-04-01T08:35:35.074Z,56.00
2018-04-01T08:36:35.052Z,56.09
2018-04-01T08:37:34.550Z,55.14
2018-04-01T08:38:34.811Z,56.27
2018-04-01T08:39:34.798Z,56.26
2018-04-01T08:40:34.849Z,58.85
2018-04-01T08:41:36.923Z,56.67
2018-04-01T08:42:35.279Z,53.52
2018-04-01T08:43:34.999Z,53.51
2018-04-01T08:44:35.171Z,57.35
2018-04-01T08:45:35.010Z,55.66
2018-04-01T08:46:38.048Z,55.99
2018-04-01T08:47:35.103Z,54.47
2018-04-01T08:48:34.945Z,52.17
2018-04-01T08:49:34.996Z,50.91
2018-04-01T08:50:35.051Z,52.03
2018-04-01T08:51:35.152Z,52.64
2018-04-01T08:52:35.312Z,51.94
2018-04-01T08:53:35.116Z,54.18
2018-04-01T08:54:35.119Z,53.50
2018-04-01T08:55:35.054Z,58.29
2018-04-01T08:56:35.100Z,56.54
2018-04-01T08:57:34.991Z,56.92
2018-04-01T08:58:35.005Z,52.99
2018-04-01T08:59:34.874Z,50.91
2018-04-01T09:00:34.920Z,53.75
2018-04-01T09:01:33.668Z,55.15
2018-04-01T09:02:33.550Z,52.97
2018-04-01T09:03:33.553Z,55.19
2018-04-01T09:04:33.560Z,54.73
2018-04-01T09:05:33.570Z,58.57
2018-04-01T09:06:36.110Z,61.05
2018-04-01T09:07:39.933Z,58.27
2018-04-01T09:08:33.591Z,54.16
2018-04-01T09:09:33.521Z,54.05
2018-04-01T09:10:33.492Z,55.32
2018-04-01T09:11:33.619Z,52.70
2018-04-01T09:12:33.626Z,55.83
2018-04-01T09:13:33.624Z,52.47
2018-04-01T09:14:33.428Z,52.83
2018-04-01T09:15:34.869Z,54.91
2018-04-01T09:16:33.561Z,56.36
2018-04-01T09:17:33.545Z,55.14
2018-04-01T09:18:33.562Z,56.36
2018-04-01T09:19:33.565Z,58.05
2018-04-01T09:20:33.570Z,57.27
2018-04-01T09:21:33.586Z,54.87
2018-04-01T09:22:33.691Z,57.36
2018-04-01T09:23:33.588Z,54.11
2018-04-01T09:24:39.599Z,53.87
2018-04-01T09:25:33.602Z,55.61
2018-04-01T09:26:33.617Z,54.61
2018-04-01T09:27:33.630Z,55.64
2018-04-01T09:28:33.654Z,54.59
2018-04-01T09:29:33.625Z,54.96
2018-04-01T09:30:33.654Z,54.98
2018-04-01T09:31:33.671Z,54.73
2018-04-01T09:32:33.660Z,55.16
2018-04-01T09:33:33.645Z,55.80
2018-04-01T09:34:36.663Z,60.55
2018-04-01T09:35:33.681Z,63.13
2018-04-01T09:36:33.586Z,59.38
2018-04-01T09:37:33.594Z,61.68
2018-04-01T09:38:35.193Z,57.16
2018-04-01T09:39:33.614Z,60.72
2018-04-01T09:40:33.617Z,60.05
2018-04-01T09:41:33.638Z,57.01
2018-04-01T09:42:33.629Z,55.69
2018-04-01T09:43:33.662Z,61.87
2018-04-01T09:44:33.658Z,61.82
2018-04-01T09:45:33.659Z,55.76
2018-04-01T09:46:35.441Z,56.19
2018-04-01T09:47:33.585Z,59.28
2018-04-01T09:48:33.579Z,60.60
2018-04-01T09:49:33.582Z,57.99
2018-04-01T09:50:33.586Z,57.21
2018-04-01T09:51:33.786Z,56.38
2018-04-01T09:52:33.906Z,56.09
2018-04-01T09:53:36.593Z,56.61
2018-04-01T09:54:33.618Z,56.27
2018-04-01T09:55:43.884Z,63.46
2018-04-01T09:56:51.012Z,63.52
2018-04-01T09:57:46.095Z,57.20
2018-04-01T09:58:49.238Z,67.77
2018-04-01T09:59:43.487Z,58.71
2018-04-01T10:00:47.196Z,67.79
2018-04-01T10:01:49.864Z,65.84
2018-04-01T10:02:52.244Z,59.91
2018-04-01T10:03:50.348Z,66.15
2018-04-01T10:04:33.595Z,61.89
2018-04-01T10:05:42.918Z,63.29
2018-04-01T10:06:35.138Z,62.92
2018-04-01T10:07:33.610Z,67.81
2018-04-01T10:08:33.614Z,58.60
2018-04-01T10:09:33.617Z,61.81
2018-04-01T10:10:33.629Z,60.64
2018-04-01T10:11:33.635Z,60.57
2018-04-01T10:12:33.645Z,62.07
2018-04-01T10:13:33.653Z,63.38
2018-04-01T10:14:33.701Z,62.32
2018-04-01T10:15:34.802Z,65.40
2018-04-01T10:16:33.679Z,58.58
2018-04-01T10:17:33.702Z,62.94
2018-04-01T10:18:33.580Z,67.79
2018-04-01T10:19:36.509Z,68.12
2018-04-01T10:20:33.631Z,65.17
2018-04-01T10:21:33.602Z,58.68
2018-04-01T10:22:33.610Z,59.33
2018-04-01T10:23:33.617Z,59.81
2018-04-01T10:24:36.421Z,62.72
2018-04-01T10:25:46.626Z,62.63
2018-04-01T10:26:33.648Z,59.20
2018-04-01T10:27:33.641Z,60.37
2018-04-01T10:28:36.650Z,59.28
2018-04-01T10:29:33.678Z,58.08
2018-04-01T10:30:33.778Z,60.72
2018-04-01T10:31:33.677Z,59.09
2018-04-01T10:32:33.753Z,61.07
2018-04-01T10:33:33.594Z,65.89
2018-04-01T10:34:33.610Z,66.77
2018-04-01T10:35:33.605Z,59.19
2018-04-01T10:36:33.611Z,60.48
2018-04-01T10:37:33.625Z,62.07
2018-04-01T10:38:44.192Z,60.86
2018-04-01T10:39:40.489Z,59.95
2018-04-01T10:40:44.814Z,65.85
2018-04-01T10:41:33.652Z,62.20
2018-04-01T10:42:33.652Z,60.24
2018-04-01T10:43:36.014Z,61.65
2018-04-01T10:44:36.434Z,60.94
2018-04-01T10:45:33.710Z,65.42
2018-04-01T10:46:33.586Z,58.69
2018-04-01T10:47:33.689Z,60.45
2018-04-01T10:48:33.697Z,59.03
2018-04-01T10:49:33.654Z,59.02
2018-04-01T10:50:33.665Z,62.77
2018-04-01T10:51:33.625Z,61.03
2018-04-01T10:52:33.644Z,60.45
2018-04-01T10:53:33.638Z,60.46
2018-04-01T10:54:33.641Z,67.03
2018-04-01T10:55:33.550Z,60.25
2018-04-01T10:56:36.321Z,61.41
2018-04-01T10:57:33.666Z,61.63
2018-04-01T10:58:33.673Z,61.68
2018-04-01T10:59:33.682Z,67.89
2018-04-01T11:00:33.685Z,61.97
2018-04-01T11:01:33.693Z,64.80
2018-04-01T11:02:33.703Z,69.14
2018-04-01T11:03:33.606Z,59.24
2018-04-01T11:04:44.398Z,61.85
2018-04-01T11:05:38.936Z,59.19
2018-04-01T11:06:33.633Z,58.32
2018-04-01T11:07:33.633Z,57.73
2018-04-01T11:08:33.652Z,62.31
2018-04-01T11:09:33.667Z,60.52
2018-04-01T11:10:33.657Z,65.58
2018-04-01T11:11:33.692Z,67.73
2018-04-01T11:12:36.452Z,64.38
2018-04-01T11:13:33.686Z,64.33
2018-04-01T11:14:33.698Z,62.35
2018-04-01T11:15:34.923Z,60.41
2018-04-01T11:16:33.698Z,63.80
2018-04-01T11:17:33.712Z,63.76
2018-04-01T11:18:33.715Z,66.79
2018-04-01T11:19:33.625Z,64.46
2018-04-01T11:20:33.638Z,60.88
2018-04-01T11:21:33.644Z,64.54
2018-04-01T11:22:33.646Z,65.98
2018-04-01T11:23:36.309Z,63.74
2018-04-01T11:24:33.860Z,63.82
2018-04-01T11:25:33.695Z,65.05
2018-04-01T11:26:33.682Z,62.03
2018-04-01T11:27:33.676Z,65.65
2018-04-01T11:28:33.691Z,68.01
2018-04-01T11:29:33.694Z,61.86
2018-04-01T11:30:33.702Z,62.30
2018-04-01T11:31:33.715Z,60.73
2018-04-01T11:32:33.713Z,64.72
2018-04-01T11:33:33.750Z,64.10
2018-04-01T11:34:33.655Z,63.37
2018-04-01T11:35:33.536Z,62.33
2018-04-01T11:36:33.539Z,63.38
2018-04-01T11:37:33.554Z,62.16
2018-04-01T11:38:36.141Z,61.94
2018-04-01T11:39:33.666Z,64.57
2018-04-01T11:40:33.569Z,65.90
2018-04-01T11:41:33.684Z,63.66
2018-04-01T11:42:33.680Z,62.95
2018-04-01T11:43:33.701Z,63.12
2018-04-01T11:44:33.701Z,65.39
2018-04-01T11:45:33.714Z,69.08
2018-04-01T11:46:33.727Z,63.67
2018-04-01T11:47:33.734Z,64.90
2018-04-01T11:48:33.731Z,66.18
2018-04-01T11:49:33.635Z,61.52
2018-04-01T11:50:34.758Z,63.82
2018-04-01T11:51:33.549Z,65.01
2018-04-01T11:52:33.658Z,64.06
2018-04-01T11:53:33.662Z,64.47
2018-04-01T11:54:33.670Z,65.20
2018-04-01T11:55:33.680Z,66.92
2018-04-01T11:56:33.689Z,64.26
2018-04-01T11:57:33.697Z,63.95
2018-04-01T11:58:33.706Z,65.04
2018-04-01T11:59:33.728Z,63.31
2018-04-01T12:00:33.718Z,67.15
2018-04-01T12:01:33.726Z,61.15
2018-04-01T12:02:33.734Z,63.36
2018-04-01T12:03:35.909Z,63.09
2018-04-01T12:04:33.747Z,63.14
2018-04-01T12:05:33.647Z,62.31
2018-04-01T12:06:33.663Z,60.82
2018-04-01T12:07:36.088Z,65.60
2018-04-01T12:08:33.666Z,64.79
2018-04-01T12:09:33.681Z,64.81
2018-04-01T12:10:33.686Z,61.64
2018-04-01T12:11:49.733Z,63.05
2018-04-01T12:12:50.664Z,63.39
2018-04-01T12:13:45.469Z,64.42
2018-04-01T12:14:45.427Z,62.45
2018-04-01T12:15:46.739Z,63.04
2018-04-01T12:16:42.903Z,66.08
2018-04-01T12:17:41.947Z,62.05
2018-04-01T12:18:33.759Z,65.64
2018-04-01T12:19:33.745Z,63.64
2018-04-01T12:20:33.645Z,57.99
2018-04-01T12:21:33.664Z,58.19
2018-04-01T12:22:33.672Z,63.24
2018-04-01T12:23:33.694Z,64.95
2018-04-01T12:24:33.682Z,61.80
2018-04-01T12:25:33.711Z,63.10
2018-04-01T12:26:36.335Z,64.30
2018-04-01T12:27:33.606Z,61.51
2018-04-01T12:28:33.714Z,62.04
2018-04-01T12:29:33.722Z,62.85
2018-04-01T12:30:33.730Z,62.40
2018-04-01T12:31:33.743Z,56.00
2018-04-01T12:32:33.741Z,62.44
2018-04-01T12:33:33.646Z,58.75
2018-04-01T12:34:33.760Z,61.52
2018-04-01T12:35:33.666Z,55.58
2018-04-01T12:36:33.674Z,55.67
2018-04-01T12:37:33.675Z,59.99
2018-04-01T12:38:33.709Z,59.71
2018-04-01T12:39:33.718Z,56.86
2018-04-01T12:40:33.693Z,58.81
2018-04-01T12:41:33.718Z,55.22
2018-04-01T12:42:33.706Z,55.29
2018-04-01T12:43:33.718Z,52.74
2018-04-01T12:44:33.742Z,52.66
2018-04-01T12:45:33.833Z,52.83
2018-04-01T12:46:33.739Z,51.97
2018-04-01T12:47:33.758Z,53.64
2018-04-01T12:48:33.758Z,55.04
2018-04-01T12:49:33.762Z,52.18
2018-04-01T12:50:33.774Z,54.80
2018-04-01T12:51:33.725Z,54.63
2018-04-01T12:52:33.686Z,57.70
2018-04-01T12:53:33.692Z,57.22